This is the latest recevied weather packets stored in our database for station/object KO6TH-15. If no packets are shown the sender has not sent any weather packets the latest 10 day(s).
| Time | Temp. | Humidity | Pressure | Rain* | Wind** | Luminosity | Snow |
|---|---|---|---|---|---|---|---|
| 1777433391 | 14.44° C | 74% | 0 hPa | 0 mm | - | - | - |
| 1777432761 | 15° C | 73% | 0 hPa | 0 mm | - | - | - |
| 1777432131 | 16.11° C | 71% | 0 hPa | 0 mm | - | - | - |
| 1777431501 | 16.67° C | 65% | 0 hPa | 0 mm | - | - | - |
| 1777430871 | 17.22° C | 63% | 0 hPa | 0 mm | - | - | - |
| 1777430241 | 17.78° C | 62% | 0 hPa | 0 mm | - | - | - |
| 1777429611 | 18.33° C | 62% | 0 hPa | 0 mm | - | - | - |
| 1777428981 | 18.89° C | 61% | 0 hPa | 0 mm | - | - | - |
| 1777428351 | 18.89° C | 60% | 0 hPa | 0 mm | - | - | - |
| 1777427751 | 19.44° C | 58% | 0 hPa | 0 mm | - | - | - |
| 1777427121 | 19.44° C | 57% | 0 hPa | 0 mm | - | - | - |
| 1777426521 | 19.44° C | 56% | 0 hPa | 0 mm | - | - | - |
| 1777425891 | 19.44° C | 55% | 0 hPa | 0 mm | - | - | - |
| 1777425291 | 20° C | 53% | 0 hPa | 0 mm | - | - | - |
| 1777424661 | 20° C | 54% | 0 hPa | 0 mm | - | - | - |
| 1777424031 | 20° C | 52% | 0 hPa | 0 mm | - | - | - |
| 1777423401 | 21.67° C | 50% | 0 hPa | 0 mm | - | - | - |
| 1777422801 | 22.22° C | 47% | 0 hPa | 0 mm | - | - | - |
| 1777422171 | 23.89° C | 46% | 0 hPa | 0 mm | - | - | - |
| 1777421541 | 24.44° C | 48% | 0 hPa | 0 mm | - | - | - |
| 1777420911 | 24.44° C | 48% | 0 hPa | 0 mm | - | - | - |
| 1777420281 | 25° C | 47% | 0 hPa | 0 mm | - | - | - |
| 1777419651 | 25.56° C | 46% | 0 hPa | 0 mm | - | - | - |
| 1777419021 | 24.44° C | 48% | 0 hPa | 0 mm | - | - | - |
| 1777418391 | 22.22° C | 52% | 0 hPa | 0 mm | - | - | - |
* Rain latest hour (hover to see other rain measurements)
** Current wind speed in m/s (hover to see current wind gust speed)